Time;durP1;ratioP1;P1;durP2;ratioP2;P2;SDS_P1;SDS_P2;PMS_P1;PMS_P2;Temp;Humidity;BMP_temperature;BMP_pressure;BME280_temperature;BME280_humidity;BME280_pressure;Samples;Min_cycle;Max_cycle;Signal;HPM_P1;HPM_P2
2022/10/10 00:00:01;;;;;;;3.87;1.27;;;9.40;96.30;;;;;;4939185;29;20496;-80
2022/10/10 04:00:24;;;;;;;3.90;2.90;;;7.60;96.30;;;;;;5942594;23;20456;-79
2022/10/10 04:02:50;;;;;;;3.63;2.40;;;7.60;96.30;;;;;;4956553;28;20462;-78
2022/10/10 04:05:15;;;;;;;6.97;3.87;;;7.70;96.30;;;;;;4952013;28;20182;-78
2022/10/10 04:07:41;;;;;;;11.10;1.97;;;7.70;96.30;;;;;;4935551;29;20211;-79
2022/10/10 04:10:08;;;;;;;3.50;2.10;;;7.70;96.30;;;;;;4937174;29;20262;-80
2022/10/10 04:12:34;;;;;;;7.60;1.87;;;7.70;96.30;;;;;;4918165;29;20244;-78
2022/10/10 04:14:59;;;;;;;8.00;2.23;;;7.70;96.30;;;;;;4918485;29;20420;-78
2022/10/10 04:17:26;;;;;;;4.90;2.23;;;7.80;96.30;;;;;;4917463;29;20192;-79
2022/10/10 04:19:51;;;;;;;3.90;1.80;;;7.90;96.30;;;;;;4917153;29;20230;-79
2022/10/10 04:22:17;;;;;;;4.10;2.10;;;8.10;96.30;;;;;;4929217;29;20534;-80
2022/10/10 04:24:43;;;;;;;8.63;3.43;;;8.20;96.30;;;;;;4935979;29;20176;-78
2022/10/10 04:27:09;;;;;;;7.00;3.80;;;8.30;96.30;;;;;;4932051;29;20200;-78
2022/10/10 04:29:35;;;;;;;3.57;2.27;;;8.20;96.30;;;;;;4934158;29;20819;-77
2022/10/10 04:32:00;;;;;;;3.67;2.07;;;8.20;96.30;;;;;;4937021;29;20487;-78
2022/10/10 04:34:27;;;;;;;3.77;2.43;;;8.20;96.30;;;;;;4936010;29;20175;-79
2022/10/10 04:36:52;;;;;;;7.20;2.03;;;8.40;96.30;;;;;;4935206;29;20187;-78
2022/10/10 04:39:18;;;;;;;4.30;2.00;;;8.40;96.30;;;;;;4935370;29;20470;-76
2022/10/10 04:41:48;;;;;;;6.07;2.30;;;8.40;96.30;;;;;;4936357;29;20199;-78
2022/10/10 04:44:14;;;;;;;6.07;1.90;;;8.40;96.30;;;;;;4935357;29;20223;-78
2022/10/10 04:46:40;;;;;;;2.77;1.63;;;8.50;96.30;;;;;;4935012;29;20463;-77
2022/10/10 04:49:05;;;;;;;3.83;1.83;;;8.40;96.30;;;;;;4936358;29;20531;-79
2022/10/10 04:51:31;;;;;;;2.90;1.67;;;8.40;96.30;;;;;;4935320;29;20862;-78
2022/10/10 04:53:57;;;;;;;7.17;1.80;;;8.40;96.30;;;;;;4936580;29;20171;-77
2022/10/10 04:56:24;;;;;;;4.07;2.07;;;8.40;96.30;;;;;;4934443;29;20459;-79
2022/10/10 04:58:50;;;;;;;5.00;1.90;;;8.40;96.30;;;;;;4935871;29;20417;-78
2022/10/10 05:01:15;;;;;;;6.53;1.93;;;8.30;96.30;;;;;;4936221;29;21018;-78
2022/10/10 05:03:41;;;;;;;4.97;2.33;;;8.20;96.30;;;;;;4936224;29;20210;-78
2022/10/10 05:06:07;;;;;;;4.73;2.07;;;8.20;96.30;;;;;;4936009;29;20186;-79
2022/10/10 05:08:32;;;;;;;5.20;1.90;;;8.20;96.30;;;;;;4934311;29;20184;-77
2022/10/10 05:10:58;;;;;;;2.40;1.40;;;8.10;96.30;;;;;;4935716;29;20200;-77
2022/10/10 05:13:23;;;;;;;2.67;1.50;;;8.10;96.30;;;;;;4926087;29;20267;-78
2022/10/10 05:15:51;;;;;;;8.23;3.20;;;8.10;96.30;;;;;;4928705;29;20771;-78
2022/10/10 05:18:17;;;;;;;4.70;1.90;;;8.10;96.30;;;;;;4922014;29;20667;-78
2022/10/10 05:20:46;;;;;;;2.80;1.80;;;8.00;96.30;;;;;;4927748;29;20518;-77
2022/10/10 05:23:12;;;;;;;3.23;1.77;;;8.00;96.30;;;;;;4934550;29;20431;-77
2022/10/10 05:25:38;;;;;;;3.57;1.87;;;8.00;96.30;;;;;;4935646;29;20420;-78
2022/10/10 05:28:03;;;;;;;5.80;2.60;;;7.90;96.30;;;;;;4935044;29;20478;-78
2022/10/10 05:30:29;;;;;;;4.70;1.90;;;7.90;96.30;;;;;;4934867;29;20178;-78
2022/10/10 05:32:54;;;;;;;10.50;2.60;;;7.90;96.30;;;;;;4933555;29;20179;-78
2022/10/10 05:35:20;;;;;;;2.13;1.33;;;8.00;96.30;;;;;;4934208;29;20214;-77
2022/10/10 05:37:45;;;;;;;12.93;2.77;;;8.10;96.30;;;;;;4933796;29;20176;-78
2022/10/10 05:40:11;;;;;;;6.20;2.30;;;8.10;96.30;;;;;;4933287;29;20622;-78
2022/10/10 05:42:37;;;;;;;5.27;3.27;;;8.10;96.30;;;;;;4916539;29;20228;-77
2022/10/10 05:45:02;;;;;;;12.43;4.67;;;8.00;96.30;;;;;;4922233;29;20195;-78
2022/10/10 05:47:28;;;;;;;19.20;5.60;;;8.00;96.30;;;;;;4933577;29;20227;-79
2022/10/10 05:49:53;;;;;;;14.30;5.73;;;7.90;96.30;;;;;;4933955;29;20175;-79
2022/10/10 05:52:19;;;;;;;30.00;11.93;;;7.90;96.30;;;;;;4902975;29;20286;-78
2022/10/10 05:54:44;;;;;;;66.30;17.93;;;8.00;96.30;;;;;;4925035;29;20192;-77
2022/10/10 05:57:10;;;;;;;38.73;10.40;;;8.20;96.30;;;;;;4923542;29;20187;-77
2022/10/10 05:59:35;;;;;;;113.43;26.47;;;8.20;96.30;;;;;;4917146;29;20222;-77
2022/10/10 06:02:01;;;;;;;46.43;12.93;;;8.20;96.30;;;;;;4924259;29;20703;-77
2022/10/10 06:04:26;;;;;;;31.70;8.83;;;8.10;96.30;;;;;;4916862;29;20176;-78
2022/10/10 06:06:52;;;;;;;8.63;3.07;;;8.10;96.30;;;;;;4919829;29;20203;-78
2022/10/10 06:09:17;;;;;;;9.90;3.00;;;8.00;96.30;;;;;;4917522;29;20559;-77
2022/10/10 06:11:43;;;;;;;9.17;2.90;;;8.00;96.30;;;;;;4921790;29;20199;-77
2022/10/10 06:14:09;;;;;;;7.57;3.30;;;8.00;96.30;;;;;;4934173;29;20179;-77
2022/10/10 06:16:35;;;;;;;5.20;2.33;;;8.10;96.30;;;;;;4950092;28;20850;-78
2022/10/10 06:19:02;;;;;;;4.30;2.00;;;8.20;96.30;;;;;;4949476;29;20423;-77
2022/10/10 06:21:27;;;;;;;2.93;1.90;;;8.30;96.30;;;;;;5187981;23;20495;-78
2022/10/10 06:23:53;;;;;;;6.40;2.07;;;8.30;96.30;;;;;;4941589;29;20418;-77
2022/10/10 06:26:18;;;;;;;4.80;2.30;;;8.30;96.30;;;;;;4952124;28;20787;-77
2022/10/10 06:28:44;;;;;;;10.63;2.87;;;8.30;96.30;;;;;;4953607;28;20181;-76
2022/10/10 06:31:11;;;;;;;4.87;1.97;;;8.20;96.30;;;;;;4961746;28;20201;-77
2022/10/10 06:33:37;;;;;;;2.67;1.57;;;8.30;96.30;;;;;;4973293;28;20170;-77
2022/10/10 06:36:05;;;;;;;3.33;1.83;;;8.30;96.30;;;;;;4973129;28;20920;-77
2022/10/10 06:38:31;;;;;;;2.97;1.83;;;8.20;96.30;;;;;;4973100;28;20174;-76
2022/10/10 06:41:04;;;;;;;7.87;2.40;;;8.20;96.30;;;;;;4973428;28;20528;-76
2022/10/10 06:43:30;;;;;;;5.23;2.40;;;8.30;96.30;;;;;;4973230;28;20170;-76
2022/10/10 06:45:56;;;;;;;2.93;2.20;;;8.40;96.30;;;;;;4973160;28;20413;-76
2022/10/10 06:48:21;;;;;;;22.03;3.10;;;8.40;96.30;;;;;;4972871;28;20445;-76
2022/10/10 06:51:13;;;;;;;5.10;2.03;;;8.50;96.30;;;;;;4973084;28;20185;-76
2022/10/10 06:53:39;;;;;;;6.40;2.57;;;8.60;96.30;;;;;;4973054;28;20213;-76
2022/10/10 06:56:04;;;;;;;9.23;2.27;;;8.70;96.30;;;;;;4973001;28;20406;-76
2022/10/10 06:58:31;;;;;;;3.50;2.20;;;8.70;96.30;;;;;;4971688;28;20185;-76
2022/10/10 07:00:59;;;;;;;11.50;2.53;;;8.70;96.30;;;;;;4973116;28;20277;-76
2022/10/10 07:03:27;;;;;;;13.93;2.77;;;8.80;96.30;;;;;;4973154;28;20422;-76
2022/10/10 07:05:55;;;;;;;2.83;2.27;;;8.80;96.30;;;;;;4971104;28;20412;-76
2022/10/10 07:08:21;;;;;;;4.20;2.33;;;8.80;96.30;;;;;;4951905;28;20549;-76
2022/10/10 07:10:47;;;;;;;3.80;2.00;;;8.90;96.30;;;;;;4954202;28;20446;-77
2022/10/10 07:13:13;;;;;;;5.13;2.10;;;8.80;96.30;;;;;;4953730;28;20779;-77
2022/10/10 07:15:39;;;;;;;5.23;2.30;;;9.00;96.30;;;;;;4953655;28;20170;-76
2022/10/10 07:18:05;;;;;;;7.30;1.87;;;9.00;96.30;;;;;;4953083;28;20465;-76
2022/10/10 07:20:31;;;;;;;5.60;2.03;;;8.90;96.30;;;;;;4955122;28;20233;-76
2022/10/10 07:22:56;;;;;;;2.17;1.63;;;8.90;96.30;;;;;;4957134;28;20654;-76
2022/10/10 07:25:22;;;;;;;3.93;2.37;;;8.90;96.30;;;;;;4955900;29;20418;-76
2022/10/10 07:27:48;;;;;;;5.13;2.40;;;9.00;96.30;;;;;;4956400;28;20277;-76
2022/10/10 07:30:14;;;;;;;3.93;1.90;;;9.00;96.30;;;;;;4956853;28;20170;-76
2022/10/10 07:32:39;;;;;;;4.37;2.03;;;9.10;96.30;;;;;;4956813;28;20557;-76
2022/10/10 07:35:05;;;;;;;6.53;1.90;;;9.30;96.30;;;;;;4955576;29;20423;-76
2022/10/10 07:37:31;;;;;;;4.50;1.97;;;9.50;96.30;;;;;;4955074;29;20183;-76
2022/10/10 07:39:57;;;;;;;2.60;1.73;;;9.60;96.30;;;;;;4956685;28;20414;-76
2022/10/10 07:42:22;;;;;;;3.40;1.87;;;9.60;96.30;;;;;;4955377;28;20202;-77
2022/10/10 07:44:48;;;;;;;4.77;2.07;;;9.80;96.30;;;;;;4956824;28;20179;-77
2022/10/10 07:47:13;;;;;;;2.37;2.00;;;10.10;96.30;;;;;;4956071;28;20205;-76
2022/10/10 07:49:39;;;;;;;6.23;2.57;;;10.20;96.30;;;;;;4956647;28;20251;-76
2022/10/10 07:52:04;;;;;;;7.60;2.37;;;10.30;96.30;;;;;;4955299;29;20568;-76
2022/10/10 07:54:30;;;;;;;5.40;2.50;;;10.40;96.30;;;;;;4955301;28;20175;-77
2022/10/10 07:56:56;;;;;;;5.83;2.30;;;10.50;96.30;;;;;;4954799;28;20178;-76
2022/10/10 07:59:23;;;;;;;6.33;2.30;;;10.70;96.30;;;;;;4956169;28;20171;-76
2022/10/10 08:01:49;;;;;;;5.53;2.57;;;10.90;96.30;;;;;;4956233;28;20438;-76
2022/10/10 08:04:15;;;;;;;5.60;1.90;;;11.20;96.30;;;;;;4956401;28;20406;-76
2022/10/10 08:06:40;;;;;;;4.47;2.27;;;11.30;96.30;;;;;;4954599;28;20799;-76
2022/10/10 08:09:06;;;;;;;6.57;1.97;;;11.50;96.30;;;;;;4954681;29;20202;-76
2022/10/10 08:11:31;;;;;;;2.20;1.80;;;11.70;96.30;;;;;;4956209;28;20229;-76
2022/10/10 08:13:57;;;;;;;7.03;2.00;;;11.80;96.30;;;;;;4954963;28;20175;-76
2022/10/10 08:16:22;;;;;;;11.80;2.03;;;11.90;96.30;;;;;;4956141;28;20171;-76
2022/10/10 08:18:48;;;;;;;6.17;2.30;;;12.20;96.30;;;;;;4955529;28;20171;-76
2022/10/10 08:21:14;;;;;;;6.53;2.57;;;12.30;96.30;;;;;;4955953;28;20562;-76
2022/10/10 08:23:40;;;;;;;6.20;2.07;;;12.30;96.30;;;;;;4956039;28;20254;-76
2022/10/10 08:26:08;;;;;;;6.53;2.60;;;11.80;96.30;;;;;;4955966;28;20435;-76
2022/10/10 08:28:34;;;;;;;3.50;2.20;;;12.00;96.30;;;;;;4955702;28;20199;-76
2022/10/10 08:31:08;;;;;;;4.50;2.43;;;11.90;96.30;;;;;;4955658;28;20437;-77
2022/10/10 08:33:34;;;;;;;11.40;3.87;;;12.30;96.30;;;;;;4955812;28;20514;-76
2022/10/10 08:36:05;;;;;;;5.43;2.97;;;12.40;96.30;;;;;;4955564;28;20817;-77
2022/10/10 08:38:30;;;;;;;6.30;2.90;;;12.60;96.30;;;;;;4955202;28;20399;-77
2022/10/10 08:40:58;;;;;;;6.53;2.40;;;12.70;96.30;;;;;;4954260;29;20522;-77
2022/10/10 08:43:41;;;;;;;7.23;2.43;;;12.60;96.30;;;;;;4955579;28;20190;-76
2022/10/10 08:46:18;;;;;;;5.17;2.27;;;12.80;96.30;;;;;;4955635;28;20410;-76
2022/10/10 08:48:45;;;;;;;9.70;2.70;;;13.20;96.30;;;;;;4955350;28;20410;-76
2022/10/10 08:51:16;;;;;;;6.73;2.57;;;13.40;96.30;;;;;;4955400;28;20423;-77
2022/10/10 08:53:46;;;;;;;4.50;2.33;;;14.00;96.30;;;;;;4954165;28;20466;-76
2022/10/10 08:56:18;;;;;;;4.03;1.90;;;14.30;96.30;;;;;;4955718;28;20410;-76
2022/10/10 08:58:47;;;;;;;3.47;1.67;;;14.40;96.30;;;;;;4954826;28;20407;-76
2022/10/10 09:01:19;;;;;;;4.47;2.40;;;14.30;96.30;;;;;;4955183;28;20431;-77
2022/10/10 09:03:56;;;;;;;3.43;1.73;;;14.30;96.30;;;;;;4954009;28;20406;-76
2022/10/10 09:06:31;;;;;;;4.70;2.17;;;14.40;96.30;;;;;;4954144;28;20770;-76
2022/10/10 09:09:22;;;;;;;7.03;3.23;;;14.40;96.30;;;;;;4954656;28;20416;-76
2022/10/10 09:12:21;;;;;;;1.97;1.33;;;14.10;96.30;;;;;;4955066;28;20923;-76
2022/10/10 09:15:19;;;;;;;6.60;1.83;;;14.70;96.30;;;;;;4955128;28;20419;-77
2022/10/10 09:18:11;;;;;;;6.03;1.90;;;15.00;96.30;;;;;;4954314;28;20860;-77
2022/10/10 09:20:47;;;;;;;6.87;2.17;;;15.70;96.30;;;;;;4954802;28;20443;-77
2022/10/10 09:23:41;;;;;;;4.33;1.67;;;16.40;96.30;;;;;;4954915;28;20430;-77
2022/10/10 09:26:11;;;;;;;4.87;2.20;;;16.70;96.30;;;;;;4954257;29;20453;-76
2022/10/10 09:28:37;;;;;;;3.60;2.07;;;17.20;96.30;;;;;;4954131;28;20478;-77
2022/10/10 09:31:14;;;;;;;7.90;2.00;;;17.90;96.30;;;;;;4954770;28;20463;-77
2022/10/10 09:33:47;;;;;;;3.77;1.97;;;18.00;96.30;;;;;;4941387;28;20419;-74
2022/10/10 09:36:17;;;;;;;4.90;1.97;;;18.20;96.30;;;;;;4936240;29;20510;-76
2022/10/10 09:38:56;;;;;;;3.37;1.53;;;18.90;95.20;;;;;;4941806;29;20445;-76
2022/10/10 09:41:40;;;;;;;2.10;1.63;;;18.20;96.30;;;;;;4954340;28;20438;-76
2022/10/10 09:44:10;;;;;;;5.83;2.00;;;18.10;96.30;;;;;;4954011;28;20832;-76
2022/10/10 09:46:36;;;;;;;9.20;2.57;;;18.50;96.30;;;;;;4954142;28;20454;-76
2022/10/10 09:49:03;;;;;;;3.70;2.00;;;18.90;96.00;;;;;;4953758;28;20814;-77
2022/10/10 09:51:29;;;;;;;5.50;1.70;;;18.90;96.30;;;;;;4942926;28;20950;-78
2022/10/10 09:53:55;;;;;;;6.40;2.10;;;18.80;96.30;;;;;;4935185;29;20958;-76
2022/10/10 09:56:23;;;;;;;1.60;1.40;;;19.10;96.30;;;;;;4935122;29;20455;-77
2022/10/10 09:58:51;;;;;;;4.90;1.63;;;19.10;96.30;;;;;;4943602;29;20262;-76
2022/10/10 10:01:28;;;;;;;5.00;1.90;;;18.80;96.30;;;;;;4935711;28;20475;-77
2022/10/10 10:04:17;;;;;;;9.60;1.80;;;19.30;96.30;;;;;;4940513;29;20429;-75
2022/10/10 10:06:46;;;;;;;4.03;1.73;;;19.30;96.30;;;;;;4953508;28;20466;-77
2022/10/10 10:09:20;;;;;;;6.37;1.90;;;18.70;96.30;;;;;;4954408;28;20792;-75
2022/10/10 10:11:52;;;;;;;4.73;1.70;;;19.50;96.30;;;;;;4953842;28;20449;-75
2022/10/10 10:14:33;;;;;;;3.73;1.93;;;19.80;96.10;;;;;;4954088;28;20891;-75
2022/10/10 10:17:13;;;;;;;2.80;1.50;;;19.70;96.30;;;;;;4939438;28;21042;-76
2022/10/10 10:19:41;;;;;;;6.30;1.83;;;19.50;96.10;;;;;;4934900;29;20553;-75
2022/10/10 10:22:42;;;;;;;9.53;2.00;;;19.70;95.90;;;;;;4934473;29;21079;-76
2022/10/10 10:25:31;;;;;;;3.20;1.50;;;19.90;96.00;;;;;;4934411;29;20423;-75
2022/10/10 10:28:09;;;;;;;1.93;1.50;;;19.50;96.30;;;;;;4934101;29;20467;-75
2022/10/10 10:30:35;;;;;;;4.63;1.73;;;19.90;96.30;;;;;;4934605;29;20431;-75
2022/10/10 10:33:16;;;;;;;6.57;2.17;;;20.00;96.30;;;;;;4934727;29;20846;-76
2022/10/10 10:35:49;;;;;;;4.30;1.93;;;20.00;96.30;;;;;;4934714;29;20480;-76
2022/10/10 10:38:21;;;;;;;2.40;1.70;;;19.60;95.90;;;;;;4934499;29;20450;-75
2022/10/10 10:41:02;;;;;;;5.60;2.17;;;19.50;96.30;;;;;;4934239;29;20431;-75
2022/10/10 10:43:33;;;;;;;4.27;1.70;;;19.90;96.30;;;;;;4934675;29;20419;-76
2022/10/10 10:46:10;;;;;;;7.13;1.63;;;20.10;96.30;;;;;;4934706;29;20490;-75
2022/10/10 10:48:43;;;;;;;4.83;2.10;;;19.90;96.30;;;;;;4934082;29;20455;-75
2022/10/10 10:51:34;;;;;;;4.80;2.13;;;19.40;95.90;;;;;;4934524;29;20499;-75
2022/10/10 10:54:05;;;;;;;2.20;1.60;;;18.70;96.30;;;;;;4952418;28;20434;-75
2022/10/10 10:56:41;;;;;;;3.53;1.87;;;18.60;96.30;;;;;;4956754;28;20434;-75
2022/10/10 10:59:12;;;;;;;4.10;1.97;;;18.60;96.30;;;;;;4957322;29;20757;-76
2022/10/10 11:01:47;;;;;;;8.13;2.13;;;19.40;96.30;;;;;;4957298;28;20430;-75
2022/10/10 11:04:36;;;;;;;4.07;1.53;;;19.40;96.30;;;;;;4952942;28;20414;-75
2022/10/10 11:07:16;;;;;;;4.93;1.77;;;18.70;96.30;;;;;;4937641;29;20455;-75
2022/10/10 11:10:00;;;;;;;4.73;1.77;;;19.00;96.30;;;;;;4937896;29;20414;-75
2022/10/10 11:12:52;;;;;;;4.60;1.80;;;19.20;96.30;;;;;;4937951;29;20434;-75
2022/10/10 11:15:31;;;;;;;4.10;1.50;;;19.60;96.30;;;;;;4944822;29;20455;-78
2022/10/10 11:18:29;;;;;;;5.73;1.80;;;19.40;96.30;;;;;;4945007;29;20962;-75
2022/10/10 11:21:06;;;;;;;4.43;1.90;;;19.50;96.30;;;;;;4938125;29;20438;-76
2022/10/10 11:23:38;;;;;;;2.83;2.00;;;19.60;96.30;;;;;;4938067;29;20826;-76
2022/10/10 11:26:10;;;;;;;4.40;1.97;;;19.80;96.30;;;;;;4936790;29;20427;-76
2022/10/10 11:28:40;;;;;;;6.23;2.00;;;19.90;96.30;;;;;;4937139;29;20902;-77
2022/10/10 11:31:11;;;;;;;3.83;2.07;;;19.90;96.30;;;;;;4936518;29;20526;-76
2022/10/10 11:33:51;;;;;;;3.00;1.50;;;19.80;96.30;;;;;;4937898;29;20404;-77
2022/10/10 11:36:24;;;;;;;6.47;2.00;;;20.20;96.30;;;;;;4937716;29;20439;-77
2022/10/10 11:38:49;;;;;;;8.90;1.83;;;20.10;96.30;;;;;;4935898;29;20466;-76
2022/10/10 11:41:20;;;;;;;3.10;1.73;;;19.90;96.30;;;;;;4936582;29;20959;-76
2022/10/10 11:43:55;;;;;;;4.70;1.40;;;19.70;96.30;;;;;;4948247;29;20191;-76
2022/10/10 11:46:41;;;;;;;3.43;1.70;;;19.70;96.30;;;;;;4948461;28;20529;-77
2022/10/10 11:49:08;;;;;;;2.53;1.77;;;19.00;96.30;;;;;;4940433;28;20443;-77
2022/10/10 11:52:00;;;;;;;4.83;1.90;;;18.50;96.30;;;;;;4928641;28;20448;-76
2022/10/10 11:54:43;;;;;;;3.73;1.53;;;18.50;96.30;;;;;;4944428;28;20513;-76
2022/10/10 11:57:18;;;;;;;5.00;2.17;;;18.40;96.30;;;;;;4955644;28;20422;-77
2022/10/10 11:59:56;;;;;;;12.83;2.20;;;18.80;96.30;;;;;;4957829;28;20429;-75
2022/10/10 12:02:29;;;;;;;2.10;1.27;;;19.60;96.30;;;;;;4955389;28;20457;-76
2022/10/10 12:04:55;;;;;;;3.23;1.43;;;20.50;96.30;;;;;;4951302;28;20517;-76
2022/10/10 12:07:34;;;;;;;2.33;1.10;;;20.50;96.30;;;;;;4940899;28;20490;-77
2022/10/10 12:10:07;;;;;;;3.50;1.70;;;20.60;96.30;;;;;;4951688;28;20422;-77
2022/10/10 12:12:38;;;;;;;5.77;1.40;;;20.50;96.20;;;;;;4943732;28;20486;-77
2022/10/10 12:15:08;;;;;;;3.03;1.40;;;20.40;96.30;;;;;;4948253;28;20437;-77
2022/10/10 12:17:40;;;;;;;5.70;1.60;;;20.00;96.30;;;;;;4949080;28;20459;-77
2022/10/10 12:20:10;;;;;;;3.27;1.50;;;19.80;96.30;;;;;;4948581;28;20513;-77
2022/10/10 13:12:04;;;;;;;6.57;1.70;;;20.00;96.30;;;;;;4911794;29;20484;-77
2022/10/10 13:14:42;;;;;;;5.90;1.83;;;19.80;96.30;;;;;;4913152;29;20439;-76
2022/10/10 13:17:24;;;;;;;6.70;1.60;;;19.40;96.30;;;;;;4916522;29;20443;-77
2022/10/10 13:19:52;;;;;;;5.30;1.40;;;19.40;96.30;;;;;;4919371;29;20853;-77
2022/10/10 13:22:18;;;;;;;3.77;1.40;;;19.80;96.30;;;;;;4916721;29;20482;-77
2022/10/10 13:24:45;;;;;;;3.77;1.97;;;19.80;96.30;;;;;;4934432;29;20422;-77
2022/10/10 13:27:32;;;;;;;4.90;1.73;;;19.50;96.30;;;;;;4919141;29;20839;-77
2022/10/10 13:29:58;;;;;;;9.10;1.90;;;19.20;96.20;;;;;;4920820;29;20512;-77
2022/10/10 13:32:31;;;;;;;3.23;1.47;;;19.40;96.30;;;;;;4919250;29;20439;-77
2022/10/10 13:34:59;;;;;;;3.90;1.50;;;19.00;96.20;;;;;;4921281;29;20764;-76
2022/10/10 13:37:26;;;;;;;3.57;1.50;;;18.80;96.30;;;;;;4920226;29;20507;-77
2022/10/10 13:39:53;;;;;;;3.87;1.53;;;18.70;96.30;;;;;;4920563;29;20916;-76
2022/10/10 13:42:42;;;;;;;2.60;1.60;;;18.90;96.30;;;;;;4919059;29;20445;-77
2022/10/10 13:45:22;;;;;;;5.10;1.37;;;18.80;96.30;;;;;;4919000;29;20421;-76
2022/10/10 13:47:50;;;;;;;11.30;2.10;;;19.20;96.30;;;;;;4909727;29;20968;-78
2022/10/10 13:50:29;;;;;;;4.00;1.57;;;19.60;96.30;;;;;;4940701;29;20427;-78
2022/10/10 13:53:25;;;;;;;3.33;2.00;;;19.60;96.30;;;;;;4911148;29;20491;-80
2022/10/10 13:56:18;;;;;;;5.43;1.70;;;19.90;96.30;;;;;;4912656;29;20808;-79
2022/10/10 13:58:53;;;;;;;6.17;1.63;;;20.10;96.30;;;;;;4915090;29;20408;-78
2022/10/10 14:01:41;;;;;;;9.30;2.20;;;19.70;96.30;;;;;;4929122;29;20444;-79
2022/10/10 14:04:14;;;;;;;5.53;1.60;;;20.00;96.30;;;;;;4934043;29;20382;-80
2022/10/10 14:06:41;;;;;;;4.80;1.60;;;20.20;96.30;;;;;;4933089;29;20444;-78
2022/10/10 14:09:14;;;;;;;4.50;1.70;;;20.30;96.30;;;;;;4937693;29;20420;-81
2022/10/10 14:11:42;;;;;;;5.60;1.80;;;20.20;96.30;;;;;;4931724;29;20480;-76
2022/10/10 14:14:15;;;;;;;6.27;1.90;;;20.00;96.30;;;;;;4916306;29;20421;-76
2022/10/10 14:16:41;;;;;;;3.10;1.60;;;19.80;96.30;;;;;;4915717;29;20409;-77
2022/10/10 14:19:23;;;;;;;7.73;2.83;;;19.50;96.30;;;;;;4915548;29;20476;-78
2022/10/10 14:21:49;;;;;;;7.90;1.90;;;19.10;96.30;;;;;;4913922;29;20559;-77
2022/10/10 14:24:14;;;;;;;11.13;2.90;;;19.10;96.30;;;;;;4915545;29;20409;-78
2022/10/10 14:26:40;;;;;;;8.50;2.10;;;18.90;96.30;;;;;;4915000;29;20184;-78
2022/10/10 14:29:12;;;;;;;6.47;2.00;;;18.80;96.30;;;;;;4916776;29;20300;-77
2022/10/10 14:31:37;;;;;;;6.93;1.80;;;18.60;96.30;;;;;;4921380;29;20204;-77
2022/10/10 14:34:03;;;;;;;7.87;1.90;;;18.30;96.30;;;;;;4920614;29;20438;-76
2022/10/10 14:36:28;;;;;;;8.93;2.27;;;18.10;96.30;;;;;;4921750;29;20300;-77
2022/10/10 14:38:54;;;;;;;10.63;1.80;;;18.00;96.30;;;;;;4921236;29;20239;-76
2022/10/10 14:41:19;;;;;;;8.53;1.60;;;18.00;96.30;;;;;;4921516;29;20267;-76
2022/10/10 14:43:45;;;;;;;8.13;2.20;;;18.00;96.30;;;;;;4921634;29;20200;-77
2022/10/10 14:46:18;;;;;;;3.80;2.10;;;18.20;96.30;;;;;;4921690;29;20200;-77
2022/10/10 14:48:44;;;;;;;9.30;2.30;;;18.30;96.30;;;;;;4919911;29;20207;-77
2022/10/10 14:51:10;;;;;;;4.37;1.60;;;18.40;96.30;;;;;;4921288;29;20447;-77
2022/10/10 14:53:36;;;;;;;9.50;2.13;;;18.20;96.30;;;;;;4920772;29;20235;-77
2022/10/10 14:56:02;;;;;;;3.23;2.00;;;18.20;96.30;;;;;;4921921;29;20412;-76
2022/10/10 14:58:28;;;;;;;6.23;1.90;;;18.00;96.30;;;;;;4920877;29;20556;-77
2022/10/10 15:00:53;;;;;;;9.13;2.03;;;17.60;96.30;;;;;;4921413;29;20200;-78
2022/10/10 15:03:19;;;;;;;6.87;2.40;;;17.30;96.30;;;;;;4921469;29;20188;-76
2022/10/10 15:05:47;;;;;;;9.03;1.87;;;17.00;96.30;;;;;;4921014;29;20266;-77
2022/10/10 15:08:14;;;;;;;3.13;1.80;;;16.70;96.30;;;;;;4919541;29;20981;-77
2022/10/10 15:10:40;;;;;;;7.37;2.40;;;16.50;96.30;;;;;;4919824;29;20475;-77
2022/10/10 15:13:05;;;;;;;5.63;2.00;;;16.40;96.30;;;;;;4921286;29;20439;-77
2022/10/10 15:15:31;;;;;;;8.83;2.37;;;16.20;96.30;;;;;;4921350;29;20516;-78
2022/10/10 15:17:57;;;;;;;7.97;2.00;;;16.00;96.30;;;;;;4921425;29;20231;-78
2022/10/10 15:20:29;;;;;;;4.80;3.30;;;15.90;96.30;;;;;;4920234;29;20662;-78
2022/10/10 15:22:56;;;;;;;10.57;2.20;;;15.80;96.30;;;;;;4921389;29;20396;-78
2022/10/10 15:25:21;;;;;;;7.10;3.20;;;15.90;96.30;;;;;;4921905;29;20412;-78
2022/10/10 15:27:47;;;;;;;5.33;3.00;;;16.00;96.30;;;;;;4921032;29;20466;-78
2022/10/10 15:30:12;;;;;;;30.33;8.73;;;16.00;96.30;;;;;;4921615;29;20176;-78
2022/10/10 15:32:39;;;;;;;5.03;1.80;;;15.90;96.30;;;;;;4921542;29;20211;-79
2022/10/10 15:35:05;;;;;;;4.70;1.97;;;15.80;96.30;;;;;;4920568;29;20164;-79
2022/10/10 15:37:31;;;;;;;11.87;2.10;;;15.70;96.30;;;;;;4921546;29;20416;-79
2022/10/10 15:39:56;;;;;;;3.93;1.70;;;15.60;96.30;;;;;;4921855;29;20422;-78
2022/10/10 15:42:22;;;;;;;3.30;2.03;;;15.50;96.30;;;;;;4917971;29;20609;-79
2022/10/10 15:44:48;;;;;;;7.37;2.20;;;15.40;96.30;;;;;;4918502;29;20644;-78
2022/10/10 15:47:15;;;;;;;7.20;2.87;;;15.40;96.30;;;;;;4949685;29;20661;-79
2022/10/10 15:49:41;;;;;;;6.50;2.57;;;15.40;96.30;;;;;;4919658;29;20208;-79
2022/10/10 15:52:07;;;;;;;3.50;2.33;;;15.20;96.30;;;;;;4919033;29;20932;-79
2022/10/10 15:54:33;;;;;;;7.33;2.10;;;15.20;96.30;;;;;;4917115;29;20941;-79
2022/10/10 15:56:58;;;;;;;9.57;2.40;;;15.20;96.30;;;;;;4917698;29;20491;-78
2022/10/10 15:59:24;;;;;;;5.97;3.73;;;15.20;96.30;;;;;;4918405;29;20176;-79
2022/10/10 16:01:49;;;;;;;8.97;3.13;;;15.10;96.30;;;;;;4918177;29;20204;-79
2022/10/10 16:04:15;;;;;;;6.73;3.33;;;15.10;96.30;;;;;;4918219;29;20228;-79
2022/10/10 16:06:40;;;;;;;5.87;2.77;;;15.00;96.30;;;;;;4917263;29;20543;-79
2022/10/10 16:09:06;;;;;;;3.73;2.00;;;14.80;96.30;;;;;;4917592;29;20184;-79
2022/10/10 16:11:32;;;;;;;4.40;2.60;;;14.70;96.30;;;;;;4916040;29;20263;-79
2022/10/10 16:13:57;;;;;;;6.00;3.80;;;14.70;96.30;;;;;;4917920;29;20739;-79
2022/10/10 16:16:25;;;;;;;4.20;2.87;;;14.60;96.30;;;;;;4918277;29;20657;-79
2022/10/10 16:18:51;;;;;;;3.73;2.53;;;14.60;96.30;;;;;;4916467;29;20188;-79
2022/10/10 16:21:19;;;;;;;5.93;2.30;;;14.50;96.30;;;;;;4918164;29;20445;-79
2022/10/10 16:23:47;;;;;;;4.17;2.73;;;14.40;96.30;;;;;;4917994;29;20235;-79
2022/10/10 16:26:21;;;;;;;5.60;2.33;;;14.40;96.30;;;;;;4916938;29;20513;-79
2022/10/10 16:28:47;;;;;;;6.23;3.00;;;14.40;96.30;;;;;;4916188;29;20463;-79
2022/10/10 16:31:14;;;;;;;63.83;31.67;;;14.40;96.30;;;;;;4917977;29;20429;-79
2022/10/10 16:33:41;;;;;;;25.70;13.13;;;14.30;96.30;;;;;;4917914;29;20404;-79
2022/10/10 16:36:13;;;;;;;7.57;3.50;;;14.20;96.30;;;;;;4917849;29;20416;-78
2022/10/10 16:38:39;;;;;;;9.93;3.40;;;14.10;96.30;;;;;;4916983;29;20944;-79
2022/10/10 16:41:06;;;;;;;4.67;2.50;;;14.00;96.30;;;;;;4917465;29;20479;-79
2022/10/10 16:43:35;;;;;;;6.30;2.60;;;13.90;96.30;;;;;;4917632;29;20224;-79
2022/10/10 16:46:03;;;;;;;6.23;3.13;;;13.90;96.30;;;;;;4917375;29;20428;-79
2022/10/10 16:48:34;;;;;;;4.90;2.90;;;13.80;96.30;;;;;;4916951;29;20462;-79
2022/10/10 16:51:02;;;;;;;4.53;2.70;;;13.70;96.30;;;;;;4917490;29;20456;-79
2022/10/10 16:53:28;;;;;;;4.20;2.63;;;13.60;96.30;;;;;;4915351;29;20437;-80
2022/10/10 16:55:57;;;;;;;6.17;2.67;;;13.60;96.30;;;;;;4917136;29;20419;-79
2022/10/10 16:58:23;;;;;;;5.53;3.00;;;13.60;96.30;;;;;;4919081;29;20180;-79
2022/10/10 17:00:49;;;;;;;7.53;3.00;;;13.50;96.30;;;;;;4918301;29;20445;-78
2022/10/10 17:03:14;;;;;;;2.73;2.33;;;13.50;96.30;;;;;;4917586;29;20172;-78
2022/10/10 17:05:40;;;;;;;6.07;2.40;;;13.50;96.30;;;;;;4917784;29;20180;-79
2022/10/10 17:08:05;;;;;;;6.40;3.30;;;13.50;96.30;;;;;;4918055;29;20196;-79
2022/10/10 17:10:31;;;;;;;10.67;3.23;;;13.30;96.30;;;;;;4917118;29;20192;-78
2022/10/10 17:12:56;;;;;;;11.13;2.90;;;13.20;96.30;;;;;;4947686;29;20296;-78
2022/10/10 17:15:22;;;;;;;10.80;4.70;;;13.20;96.30;;;;;;4917046;29;20638;-79
2022/10/10 17:17:47;;;;;;;8.63;3.40;;;13.00;96.30;;;;;;4916523;29;20602;-79
2022/10/10 17:20:13;;;;;;;6.33;3.67;;;13.20;96.30;;;;;;4917026;29;20259;-79
2022/10/10 17:22:39;;;;;;;6.90;4.27;;;13.00;96.30;;;;;;4915747;29;20200;-79
2022/10/10 17:25:06;;;;;;;7.77;4.80;;;12.90;96.30;;;;;;4916932;29;20172;-79
2022/10/10 17:27:33;;;;;;;5.70;3.33;;;12.90;96.30;;;;;;4916410;29;20452;-79
2022/10/10 17:29:59;;;;;;;38.47;29.87;;;13.00;96.30;;;;;;4916813;29;20511;-78
2022/10/10 17:32:25;;;;;;;6.50;4.37;;;13.10;96.30;;;;;;4911207;29;20593;-79
2022/10/10 17:34:52;;;;;;;10.63;4.70;;;13.00;96.30;;;;;;4897799;29;20245;-79
2022/10/10 17:37:18;;;;;;;11.23;8.23;;;13.10;96.30;;;;;;4897971;29;20177;-78
2022/10/10 17:39:44;;;;;;;12.53;5.60;;;12.90;96.30;;;;;;4898077;29;20534;-78
2022/10/10 17:42:09;;;;;;;6.97;5.57;;;12.90;96.30;;;;;;4897959;29;20468;-79
2022/10/10 17:44:35;;;;;;;8.13;4.67;;;12.80;96.30;;;;;;4897920;29;20192;-79
2022/10/10 17:47:00;;;;;;;8.43;4.17;;;12.80;96.30;;;;;;4897768;29;20211;-79